sensor_id;sensor_type;location;lat;lon;timestamp;temperature;humidity
981;DHT22;479;53.514;9.994;2023-11-19T00:02:02;5.50;99.90
981;DHT22;479;53.514;9.994;2023-11-19T00:04:29;5.50;99.90
981;DHT22;479;53.514;9.994;2023-11-19T00:06:56;5.50;99.90
981;DHT22;479;53.514;9.994;2023-11-19T00:09:28;5.50;99.90
981;DHT22;479;53.514;9.994;2023-11-19T00:11:55;5.50;99.90
981;DHT22;479;53.514;9.994;2023-11-19T00:14:22;5.60;99.90
981;DHT22;479;53.514;9.994;2023-11-19T00:16:49;5.50;99.90
981;DHT22;479;53.514;9.994;2023-11-19T00:19:18;5.50;99.90
981;DHT22;479;53.514;9.994;2023-11-19T00:21:45;5.60;99.90
981;DHT22;479;53.514;9.994;2023-11-19T00:24:12;5.60;99.90
981;DHT22;479;53.514;9.994;2023-11-19T00:26:42;5.50;99.90
981;DHT22;479;53.514;9.994;2023-11-19T00:29:08;5.60;99.90
981;DHT22;479;53.514;9.994;2023-11-19T00:31:35;5.50;99.90
981;DHT22;479;53.514;9.994;2023-11-19T00:34:02;5.50;99.90
981;DHT22;479;53.514;9.994;2023-11-19T00:36:33;5.50;99.90
981;DHT22;479;53.514;9.994;2023-11-19T00:38:59;5.60;99.90
981;DHT22;479;53.514;9.994;2023-11-19T00:41:26;5.60;99.90
981;DHT22;479;53.514;9.994;2023-11-19T00:43:53;5.60;99.90
981;DHT22;479;53.514;9.994;2023-11-19T00:46:21;5.60;99.90
981;DHT22;479;53.514;9.994;2023-11-19T00:48:48;5.60;99.90
981;DHT22;479;53.514;9.994;2023-11-19T00:51:14;5.50;99.90
981;DHT22;479;53.514;9.994;2023-11-19T00:53:43;5.60;99.90
981;DHT22;479;53.514;9.994;2023-11-19T00:56:11;5.60;99.90
981;DHT22;479;53.514;9.994;2023-11-19T00:58:38;5.70;99.90
981;DHT22;479;53.514;9.994;2023-11-19T01:01:05;5.70;99.90
981;DHT22;479;53.514;9.994;2023-11-19T01:03:32;5.70;99.90
981;DHT22;479;53.514;9.994;2023-11-19T01:05:59;5.70;99.90
981;DHT22;479;53.514;9.994;2023-11-19T01:08:28;5.70;99.90
981;DHT22;479;53.514;9.994;2023-11-19T01:10:56;5.60;99.90
981;DHT22;479;53.514;9.994;2023-11-19T01:13:23;5.60;99.90
981;DHT22;479;53.514;9.994;2023-11-19T01:15:50;5.60;99.90
981;DHT22;479;53.514;9.994;2023-11-19T01:18:17;5.60;99.90
981;DHT22;479;53.514;9.994;2023-11-19T01:20:44;5.70;99.90
981;DHT22;479;53.514;9.994;2023-11-19T01:23:12;5.60;99.90
981;DHT22;479;53.514;9.994;2023-11-19T01:25:39;5.70;99.90
981;DHT22;479;53.514;9.994;2023-11-19T01:28:07;5.70;99.90
981;DHT22;479;53.514;9.994;2023-11-19T01:30:34;5.70;99.90
981;DHT22;479;53.514;9.994;2023-11-19T01:33:01;5.70;99.90
981;DHT22;479;53.514;9.994;2023-11-19T01:35:28;5.70;99.90
981;DHT22;479;53.514;9.994;2023-11-19T01:37:55;5.70;99.90
981;DHT22;479;53.514;9.994;2023-11-19T01:40:21;5.70;99.90
981;DHT22;479;53.514;9.994;2023-11-19T01:42:48;5.70;99.90
981;DHT22;479;53.514;9.994;2023-11-19T01:45:26;5.70;99.90
981;DHT22;479;53.514;9.994;2023-11-19T01:47:54;5.70;99.90
981;DHT22;479;53.514;9.994;2023-11-19T01:50:22;5.80;99.90
981;DHT22;479;53.514;9.994;2023-11-19T01:52:50;5.80;99.90
981;DHT22;479;53.514;9.994;2023-11-19T01:55:19;5.80;99.90
981;DHT22;479;53.514;9.994;2023-11-19T01:57:48;5.70;99.90
981;DHT22;479;53.514;9.994;2023-11-19T02:00:18;5.80;99.90
981;DHT22;479;53.514;9.994;2023-11-19T02:02:46;5.80;99.90
981;DHT22;479;53.514;9.994;2023-11-19T02:05:14;5.70;99.90
981;DHT22;479;53.514;9.994;2023-11-19T02:07:40;5.80;99.90
981;DHT22;479;53.514;9.994;2023-11-19T02:10:08;5.80;99.90
981;DHT22;479;53.514;9.994;2023-11-19T02:12:40;5.70;99.90
981;DHT22;479;53.514;9.994;2023-11-19T02:15:09;5.80;99.90
981;DHT22;479;53.514;9.994;2023-11-19T02:17:38;5.80;99.90
981;DHT22;479;53.514;9.994;2023-11-19T02:20:11;5.80;99.90
981;DHT22;479;53.514;9.994;2023-11-19T02:22:40;5.80;99.90
981;DHT22;479;53.514;9.994;2023-11-19T02:25:10;5.80;99.90
981;DHT22;479;53.514;9.994;2023-11-19T02:27:46;5.80;99.90
981;DHT22;479;53.514;9.994;2023-11-19T02:30:14;5.90;99.90
981;DHT22;479;53.514;9.994;2023-11-19T02:32:41;5.90;99.90
981;DHT22;479;53.514;9.994;2023-11-19T02:35:08;5.90;99.90
981;DHT22;479;53.514;9.994;2023-11-19T02:37:35;5.90;99.90
981;DHT22;479;53.514;9.994;2023-11-19T02:40:03;5.90;99.90
981;DHT22;479;53.514;9.994;2023-11-19T02:42:31;5.90;99.90
981;DHT22;479;53.514;9.994;2023-11-19T02:44:59;6.00;99.90
981;DHT22;479;53.514;9.994;2023-11-19T02:47:26;6.00;99.90
981;DHT22;479;53.514;9.994;2023-11-19T02:49:55;6.00;99.90
981;DHT22;479;53.514;9.994;2023-11-19T02:52:23;6.00;99.90
981;DHT22;479;53.514;9.994;2023-11-19T02:54:50;6.00;99.90
981;DHT22;479;53.514;9.994;2023-11-19T02:57:17;6.00;99.90
981;DHT22;479;53.514;9.994;2023-11-19T02:59:46;6.00;99.90
981;DHT22;479;53.514;9.994;2023-11-19T03:02:14;6.10;99.90
981;DHT22;479;53.514;9.994;2023-11-19T03:04:42;6.20;99.90
981;DHT22;479;53.514;9.994;2023-11-19T03:07:11;6.20;99.90
981;DHT22;479;53.514;9.994;2023-11-19T03:09:39;6.20;99.90
981;DHT22;479;53.514;9.994;2023-11-19T03:12:07;6.30;99.90
981;DHT22;479;53.514;9.994;2023-11-19T03:14:34;6.30;99.90
981;DHT22;479;53.514;9.994;2023-11-19T03:17:01;6.40;99.90
981;DHT22;479;53.514;9.994;2023-11-19T03:19:30;6.30;99.90
981;DHT22;479;53.514;9.994;2023-11-19T03:21:57;6.30;99.90
981;DHT22;479;53.514;9.994;2023-11-19T03:24:25;6.30;99.90
981;DHT22;479;53.514;9.994;2023-11-19T03:26:52;6.30;99.90
981;DHT22;479;53.514;9.994;2023-11-19T03:29:18;6.20;99.90
981;DHT22;479;53.514;9.994;2023-11-19T03:31:45;6.30;99.90
981;DHT22;479;53.514;9.994;2023-11-19T03:34:12;6.30;99.90
981;DHT22;479;53.514;9.994;2023-11-19T03:36:40;6.30;99.90
981;DHT22;479;53.514;9.994;2023-11-19T03:39:10;6.30;99.90
981;DHT22;479;53.514;9.994;2023-11-19T03:41:36;6.40;99.90
981;DHT22;479;53.514;9.994;2023-11-19T03:44:04;6.40;99.90
981;DHT22;479;53.514;9.994;2023-11-19T03:46:31;6.40;99.90
981;DHT22;479;53.514;9.994;2023-11-19T03:48:57;6.40;99.90
981;DHT22;479;53.514;9.994;2023-11-19T03:51:25;6.50;99.90
981;DHT22;479;53.514;9.994;2023-11-19T03:53:53;6.40;99.90
981;DHT22;479;53.514;9.994;2023-11-19T03:56:20;6.50;99.90
981;DHT22;479;53.514;9.994;2023-11-19T03:58:47;6.50;99.90
981;DHT22;479;53.514;9.994;2023-11-19T04:01:14;6.40;99.90
981;DHT22;479;53.514;9.994;2023-11-19T04:03:41;6.50;99.90
981;DHT22;479;53.514;9.994;2023-11-19T04:06:08;6.50;99.90
981;DHT22;479;53.514;9.994;2023-11-19T04:08:35;6.50;99.90
981;DHT22;479;53.514;9.994;2023-11-19T04:11:04;6.60;99.90
981;DHT22;479;53.514;9.994;2023-11-19T04:13:31;6.60;99.90
981;DHT22;479;53.514;9.994;2023-11-19T04:15:58;6.60;99.90
981;DHT22;479;53.514;9.994;2023-11-19T04:18:25;6.70;99.90
981;DHT22;479;53.514;9.994;2023-11-19T04:20:52;6.60;99.90
981;DHT22;479;53.514;9.994;2023-11-19T04:23:19;6.60;99.90
981;DHT22;479;53.514;9.994;2023-11-19T04:25:45;6.70;99.90
981;DHT22;479;53.514;9.994;2023-11-19T04:28:14;6.70;99.90
981;DHT22;479;53.514;9.994;2023-11-19T04:30:40;6.70;99.90
981;DHT22;479;53.514;9.994;2023-11-19T04:33:07;6.70;99.90
981;DHT22;479;53.514;9.994;2023-11-19T04:35:35;6.70;99.90
981;DHT22;479;53.514;9.994;2023-11-19T04:38:02;6.80;99.90
981;DHT22;479;53.514;9.994;2023-11-19T04:40:29;6.70;99.90
981;DHT22;479;53.514;9.994;2023-11-19T04:42:56;6.80;99.90
981;DHT22;479;53.514;9.994;2023-11-19T04:45:24;6.80;99.90
981;DHT22;479;53.514;9.994;2023-11-19T04:47:51;6.90;99.90
981;DHT22;479;53.514;9.994;2023-11-19T04:50:18;6.90;99.90
981;DHT22;479;53.514;9.994;2023-11-19T04:52:44;6.90;99.90
981;DHT22;479;53.514;9.994;2023-11-19T04:55:13;7.00;99.90
981;DHT22;479;53.514;9.994;2023-11-19T04:57:40;7.10;99.90
981;DHT22;479;53.514;9.994;2023-11-19T05:00:08;7.20;99.90
981;DHT22;479;53.514;9.994;2023-11-19T05:02:36;7.30;99.90
981;DHT22;479;53.514;9.994;2023-11-19T05:05:04;7.30;99.90
981;DHT22;479;53.514;9.994;2023-11-19T05:07:31;7.40;99.90
981;DHT22;479;53.514;9.994;2023-11-19T05:09:58;7.40;99.90
981;DHT22;479;53.514;9.994;2023-11-19T05:12:25;7.50;99.90
981;DHT22;479;53.514;9.994;2023-11-19T05:14:52;7.50;99.90
981;DHT22;479;53.514;9.994;2023-11-19T05:17:19;7.60;99.90
981;DHT22;479;53.514;9.994;2023-11-19T05:19:47;7.60;99.90
981;DHT22;479;53.514;9.994;2023-11-19T05:22:14;7.70;99.90
981;DHT22;479;53.514;9.994;2023-11-19T05:24:41;7.70;99.90
981;DHT22;479;53.514;9.994;2023-11-19T05:27:08;7.70;99.90
981;DHT22;479;53.514;9.994;2023-11-19T05:29:36;7.90;99.90
981;DHT22;479;53.514;9.994;2023-11-19T05:32:05;8.10;99.90
981;DHT22;479;53.514;9.994;2023-11-19T05:34:32;8.50;99.90
981;DHT22;479;53.514;9.994;2023-11-19T05:37:01;9.00;99.90
981;DHT22;479;53.514;9.994;2023-11-19T05:39:28;9.30;99.90
981;DHT22;479;53.514;9.994;2023-11-19T05:41:55;9.50;99.90
981;DHT22;479;53.514;9.994;2023-11-19T05:44:22;9.50;99.90
981;DHT22;479;53.514;9.994;2023-11-19T05:46:48;9.70;99.90
981;DHT22;479;53.514;9.994;2023-11-19T05:49:15;9.80;99.90
981;DHT22;479;53.514;9.994;2023-11-19T05:51:42;9.80;99.90
981;DHT22;479;53.514;9.994;2023-11-19T05:54:10;9.90;99.90
981;DHT22;479;53.514;9.994;2023-11-19T05:56:39;9.90;99.90
981;DHT22;479;53.514;9.994;2023-11-19T05:59:06;10.00;99.90
981;DHT22;479;53.514;9.994;2023-11-19T06:01:40;10.00;99.90
981;DHT22;479;53.514;9.994;2023-11-19T06:04:08;10.10;99.90
981;DHT22;479;53.514;9.994;2023-11-19T06:06:35;10.10;99.90
981;DHT22;479;53.514;9.994;2023-11-19T06:09:02;10.20;99.90
981;DHT22;479;53.514;9.994;2023-11-19T06:11:33;10.10;99.90
981;DHT22;479;53.514;9.994;2023-11-19T06:14:01;10.20;99.90
981;DHT22;479;53.514;9.994;2023-11-19T06:16:31;10.20;99.90
981;DHT22;479;53.514;9.994;2023-11-19T06:18:58;10.30;99.90
981;DHT22;479;53.514;9.994;2023-11-19T06:21:24;10.30;99.90
981;DHT22;479;53.514;9.994;2023-11-19T06:23:51;10.40;99.90
981;DHT22;479;53.514;9.994;2023-11-19T06:26:20;10.40;99.90
981;DHT22;479;53.514;9.994;2023-11-19T06:28:49;10.40;99.90
981;DHT22;479;53.514;9.994;2023-11-19T06:31:16;10.40;99.90
981;DHT22;479;53.514;9.994;2023-11-19T06:33:42;10.50;99.90
981;DHT22;479;53.514;9.994;2023-11-19T06:36:09;10.50;99.90
981;DHT22;479;53.514;9.994;2023-11-19T06:38:36;10.50;99.90
981;DHT22;479;53.514;9.994;2023-11-19T06:41:07;10.60;99.90
981;DHT22;479;53.514;9.994;2023-11-19T06:43:34;10.60;99.90
981;DHT22;479;53.514;9.994;2023-11-19T06:46:02;10.60;99.90
981;DHT22;479;53.514;9.994;2023-11-19T06:48:31;10.70;99.90
981;DHT22;479;53.514;9.994;2023-11-19T06:50:59;10.70;99.90
981;DHT22;479;53.514;9.994;2023-11-19T06:53:26;10.70;99.90
981;DHT22;479;53.514;9.994;2023-11-19T06:55:54;10.70;99.90
981;DHT22;479;53.514;9.994;2023-11-19T06:58:20;10.80;99.90
981;DHT22;479;53.514;9.994;2023-11-19T07:00:47;10.80;99.90
981;DHT22;479;53.514;9.994;2023-11-19T07:03:16;10.80;99.90
981;DHT22;479;53.514;9.994;2023-11-19T07:05:43;10.80;99.90
981;DHT22;479;53.514;9.994;2023-11-19T07:08:10;10.80;99.90
981;DHT22;479;53.514;9.994;2023-11-19T07:10:37;10.90;99.90
981;DHT22;479;53.514;9.994;2023-11-19T07:13:04;10.90;99.90
981;DHT22;479;53.514;9.994;2023-11-19T07:15:31;10.90;99.90
981;DHT22;479;53.514;9.994;2023-11-19T07:17:59;10.90;99.90
981;DHT22;479;53.514;9.994;2023-11-19T07:20:27;10.90;99.90
981;DHT22;479;53.514;9.994;2023-11-19T07:22:54;10.90;99.90
981;DHT22;479;53.514;9.994;2023-11-19T07:25:22;11.00;99.90
981;DHT22;479;53.514;9.994;2023-11-19T07:27:51;11.00;99.90
981;DHT22;479;53.514;9.994;2023-11-19T07:30:18;11.00;99.90
981;DHT22;479;53.514;9.994;2023-11-19T07:32:45;11.00;99.90
981;DHT22;479;53.514;9.994;2023-11-19T07:35:12;11.00;99.90
981;DHT22;479;53.514;9.994;2023-11-19T07:37:40;11.00;99.90
981;DHT22;479;53.514;9.994;2023-11-19T07:40:08;11.00;99.90
981;DHT22;479;53.514;9.994;2023-11-19T07:42:37;11.00;99.90
981;DHT22;479;53.514;9.994;2023-11-19T07:45:04;11.10;99.90
981;DHT22;479;53.514;9.994;2023-11-19T07:47:32;11.10;99.90
981;DHT22;479;53.514;9.994;2023-11-19T07:50:00;11.10;99.90
981;DHT22;479;53.514;9.994;2023-11-19T07:52:26;11.20;99.90
981;DHT22;479;53.514;9.994;2023-11-19T07:54:55;11.20;99.90
981;DHT22;479;53.514;9.994;2023-11-19T07:57:22;11.40;99.90
981;DHT22;479;53.514;9.994;2023-11-19T07:59:50;11.40;99.90
981;DHT22;479;53.514;9.994;2023-11-19T08:02:17;11.40;99.90
981;DHT22;479;53.514;9.994;2023-11-19T08:04:44;11.30;99.90
981;DHT22;479;53.514;9.994;2023-11-19T08:07:12;11.30;99.90
981;DHT22;479;53.514;9.994;2023-11-19T08:09:39;11.30;99.90
981;DHT22;479;53.514;9.994;2023-11-19T08:12:09;11.30;99.90
981;DHT22;479;53.514;9.994;2023-11-19T08:14:35;11.30;99.90
981;DHT22;479;53.514;9.994;2023-11-19T08:17:03;11.30;99.90
981;DHT22;479;53.514;9.994;2023-11-19T08:19:30;11.30;99.90
981;DHT22;479;53.514;9.994;2023-11-19T08:21:57;11.30;99.90
981;DHT22;479;53.514;9.994;2023-11-19T08:24:23;11.30;99.90
981;DHT22;479;53.514;9.994;2023-11-19T08:26:50;11.30;99.90
981;DHT22;479;53.514;9.994;2023-11-19T08:29:19;11.30;99.90
981;DHT22;479;53.514;9.994;2023-11-19T08:31:47;11.30;99.90
981;DHT22;479;53.514;9.994;2023-11-19T08:34:13;11.30;99.90
981;DHT22;479;53.514;9.994;2023-11-19T08:36:41;11.30;99.90
981;DHT22;479;53.514;9.994;2023-11-19T08:39:08;11.40;99.90
981;DHT22;479;53.514;9.994;2023-11-19T08:41:35;11.40;99.90
981;DHT22;479;53.514;9.994;2023-11-19T08:44:04;11.50;99.90
981;DHT22;479;53.514;9.994;2023-11-19T08:46:32;11.50;99.90
981;DHT22;479;53.514;9.994;2023-11-19T08:48:59;11.50;99.90
981;DHT22;479;53.514;9.994;2023-11-19T08:51:26;11.50;99.90
981;DHT22;479;53.514;9.994;2023-11-19T08:53:54;11.60;99.90
981;DHT22;479;53.514;9.994;2023-11-19T08:56:21;11.70;99.90
981;DHT22;479;53.514;9.994;2023-11-19T08:58:48;11.80;99.90
981;DHT22;479;53.514;9.994;2023-11-19T09:01:15;11.80;99.90
981;DHT22;479;53.514;9.994;2023-11-19T09:03:43;11.70;99.90
981;DHT22;479;53.514;9.994;2023-11-19T09:06:10;11.70;99.90
981;DHT22;479;53.514;9.994;2023-11-19T09:08:36;11.70;99.90
981;DHT22;479;53.514;9.994;2023-11-19T09:11:07;11.70;99.90
981;DHT22;479;53.514;9.994;2023-11-19T09:13:34;11.70;99.90
981;DHT22;479;53.514;9.994;2023-11-19T09:16:01;11.80;99.90
981;DHT22;479;53.514;9.994;2023-11-19T09:18:29;11.80;99.90
981;DHT22;479;53.514;9.994;2023-11-19T09:20:57;11.90;99.90
981;DHT22;479;53.514;9.994;2023-11-19T09:23:24;11.90;99.90
981;DHT22;479;53.514;9.994;2023-11-19T09:25:53;11.90;99.90
981;DHT22;479;53.514;9.994;2023-11-19T09:28:20;11.90;99.90
981;DHT22;479;53.514;9.994;2023-11-19T09:30:47;11.80;99.90
981;DHT22;479;53.514;9.994;2023-11-19T09:33:14;11.90;99.90
981;DHT22;479;53.514;9.994;2023-11-19T09:35:40;11.90;99.90
981;DHT22;479;53.514;9.994;2023-11-19T09:38:09;12.00;99.90
981;DHT22;479;53.514;9.994;2023-11-19T09:40:38;12.00;99.90
981;DHT22;479;53.514;9.994;2023-11-19T09:43:05;12.00;99.90
981;DHT22;479;53.514;9.994;2023-11-19T09:45:40;11.90;99.90
981;DHT22;479;53.514;9.994;2023-11-19T09:48:13;12.00;99.90
981;DHT22;479;53.514;9.994;2023-11-19T09:50:40;12.00;99.90
981;DHT22;479;53.514;9.994;2023-11-19T09:53:08;11.90;99.90
981;DHT22;479;53.514;9.994;2023-11-19T09:55:36;11.90;99.90
981;DHT22;479;53.514;9.994;2023-11-19T09:58:02;11.80;99.90
981;DHT22;479;53.514;9.994;2023-11-19T10:00:30;11.90;99.90
981;DHT22;479;53.514;9.994;2023-11-19T10:02:57;11.90;99.90
981;DHT22;479;53.514;9.994;2023-11-19T10:05:25;11.80;99.90
981;DHT22;479;53.514;9.994;2023-11-19T10:07:53;11.80;99.90
981;DHT22;479;53.514;9.994;2023-11-19T10:10:25;11.80;99.90
981;DHT22;479;53.514;9.994;2023-11-19T10:12:52;11.90;99.90
981;DHT22;479;53.514;9.994;2023-11-19T10:15:21;11.90;99.90
981;DHT22;479;53.514;9.994;2023-11-19T10:17:51;12.00;99.90
981;DHT22;479;53.514;9.994;2023-11-19T10:20:18;12.00;99.90
981;DHT22;479;53.514;9.994;2023-11-19T10:22:44;12.00;99.90
981;DHT22;479;53.514;9.994;2023-11-19T10:25:23;12.00;99.90
981;DHT22;479;53.514;9.994;2023-11-19T10:27:50;12.00;99.90
981;DHT22;479;53.514;9.994;2023-11-19T10:30:18;12.00;99.90
981;DHT22;479;53.514;9.994;2023-11-19T10:33:02;11.90;99.90
981;DHT22;479;53.514;9.994;2023-11-19T10:35:29;11.90;99.90
981;DHT22;479;53.514;9.994;2023-11-19T10:37:59;11.90;99.90
981;DHT22;479;53.514;9.994;2023-11-19T10:40:37;11.90;99.90
981;DHT22;479;53.514;9.994;2023-11-19T10:43:05;11.90;99.90
981;DHT22;479;53.514;9.994;2023-11-19T10:45:33;12.00;99.90
981;DHT22;479;53.514;9.994;2023-11-19T10:48:00;12.00;99.90
981;DHT22;479;53.514;9.994;2023-11-19T10:50:28;12.10;99.90
981;DHT22;479;53.514;9.994;2023-11-19T10:52:57;12.10;99.90
981;DHT22;479;53.514;9.994;2023-11-19T10:55:27;12.00;99.90
981;DHT22;479;53.514;9.994;2023-11-19T10:58:00;12.00;99.90
981;DHT22;479;53.514;9.994;2023-11-19T11:00:29;12.00;99.90
981;DHT22;479;53.514;9.994;2023-11-19T11:03:01;12.00;99.90
981;DHT22;479;53.514;9.994;2023-11-19T11:05:32;12.00;99.90
981;DHT22;479;53.514;9.994;2023-11-19T11:08:00;12.00;99.90
981;DHT22;479;53.514;9.994;2023-11-19T11:10:32;12.00;99.90
981;DHT22;479;53.514;9.994;2023-11-19T11:13:05;12.00;99.90
981;DHT22;479;53.514;9.994;2023-11-19T11:15:33;12.00;99.90
981;DHT22;479;53.514;9.994;2023-11-19T11:18:01;12.00;99.90
981;DHT22;479;53.514;9.994;2023-11-19T11:20:30;12.00;99.90
981;DHT22;479;53.514;9.994;2023-11-19T11:26:23;11.90;99.90
981;DHT22;479;53.514;9.994;2023-11-19T11:28:58;11.80;99.90
981;DHT22;479;53.514;9.994;2023-11-19T11:31:44;11.80;99.90
981;DHT22;479;53.514;9.994;2023-11-19T11:34:38;11.90;99.90
981;DHT22;479;53.514;9.994;2023-11-19T11:37:15;12.00;99.90
981;DHT22;479;53.514;9.994;2023-11-19T11:39:45;12.00;99.90
981;DHT22;479;53.514;9.994;2023-11-19T11:42:35;12.00;99.90
981;DHT22;479;53.514;9.994;2023-11-19T11:45:05;12.00;99.90
981;DHT22;479;53.514;9.994;2023-11-19T11:50:53;12.20;99.90
981;DHT22;479;53.514;9.994;2023-11-19T11:53:22;12.30;99.90
981;DHT22;479;53.514;9.994;2023-11-19T11:55:57;12.40;99.90
981;DHT22;479;53.514;9.994;2023-11-19T11:58:35;12.60;99.90
981;DHT22;479;53.514;9.994;2023-11-19T12:01:05;12.60;99.90
981;DHT22;479;53.514;9.994;2023-11-19T12:03:33;12.60;99.90
981;DHT22;479;53.514;9.994;2023-11-19T12:06:00;12.60;99.90
981;DHT22;479;53.514;9.994;2023-11-19T12:08:29;12.50;99.90
981;DHT22;479;53.514;9.994;2023-11-19T12:10:58;12.50;99.90
981;DHT22;479;53.514;9.994;2023-11-19T12:13:42;12.40;99.90
981;DHT22;479;53.514;9.994;2023-11-19T12:16:12;12.40;99.90
981;DHT22;479;53.514;9.994;2023-11-19T12:18:40;12.30;99.90
981;DHT22;479;53.514;9.994;2023-11-19T12:21:08;12.20;99.90
981;DHT22;479;53.514;9.994;2023-11-19T12:23:44;12.20;99.90
981;DHT22;479;53.514;9.994;2023-11-19T12:26:30;12.20;99.90
981;DHT22;479;53.514;9.994;2023-11-19T12:28:58;12.20;99.90
981;DHT22;479;53.514;9.994;2023-11-19T12:31:26;12.20;99.90
981;DHT22;479;53.514;9.994;2023-11-19T12:33:53;12.20;99.90
981;DHT22;479;53.514;9.994;2023-11-19T12:36:20;12.30;99.90
981;DHT22;479;53.514;9.994;2023-11-19T12:38:47;12.30;99.90
981;DHT22;479;53.514;9.994;2023-11-19T12:41:15;12.30;99.90
981;DHT22;479;53.514;9.994;2023-11-19T12:43:46;12.40;99.90
981;DHT22;479;53.514;9.994;2023-11-19T12:46:20;12.50;99.90
981;DHT22;479;53.514;9.994;2023-11-19T12:48:49;12.40;99.90
981;DHT22;479;53.514;9.994;2023-11-19T12:51:16;12.40;99.90
981;DHT22;479;53.514;9.994;2023-11-19T12:53:51;12.40;99.90
981;DHT22;479;53.514;9.994;2023-11-19T12:56:20;12.40;99.90
981;DHT22;479;53.514;9.994;2023-11-19T12:58:48;12.40;99.90
981;DHT22;479;53.514;9.994;2023-11-19T13:01:16;12.50;99.90
981;DHT22;479;53.514;9.994;2023-11-19T13:03:45;12.60;99.90
981;DHT22;479;53.514;9.994;2023-11-19T13:06:14;12.70;99.90
981;DHT22;479;53.514;9.994;2023-11-19T13:08:43;12.70;99.90
981;DHT22;479;53.514;9.994;2023-11-19T13:11:11;12.70;99.90
981;DHT22;479;53.514;9.994;2023-11-19T13:13:54;12.60;99.90
981;DHT22;479;53.514;9.994;2023-11-19T13:16:21;12.60;99.90
981;DHT22;479;53.514;9.994;2023-11-19T13:18:51;12.60;99.90
981;DHT22;479;53.514;9.994;2023-11-19T13:21:24;12.60;99.90
981;DHT22;479;53.514;9.994;2023-11-19T13:23:51;12.60;99.90
981;DHT22;479;53.514;9.994;2023-11-19T13:26:18;12.60;99.90
981;DHT22;479;53.514;9.994;2023-11-19T13:28:45;12.60;99.90
981;DHT22;479;53.514;9.994;2023-11-19T13:31:12;12.50;99.90
981;DHT22;479;53.514;9.994;2023-11-19T13:33:39;12.50;99.90
981;DHT22;479;53.514;9.994;2023-11-19T13:36:08;12.50;99.90
981;DHT22;479;53.514;9.994;2023-11-19T13:38:36;12.60;99.90
981;DHT22;479;53.514;9.994;2023-11-19T13:41:04;12.50;99.90
981;DHT22;479;53.514;9.994;2023-11-19T13:43:31;12.50;99.90
981;DHT22;479;53.514;9.994;2023-11-19T13:45:58;12.40;99.90
981;DHT22;479;53.514;9.994;2023-11-19T13:48:25;12.40;99.90
981;DHT22;479;53.514;9.994;2023-11-19T13:50:54;12.50;99.90
981;DHT22;479;53.514;9.994;2023-11-19T13:53:21;12.50;99.90
981;DHT22;479;53.514;9.994;2023-11-19T13:55:48;12.60;99.90
981;DHT22;479;53.514;9.994;2023-11-19T13:58:15;12.60;99.90
981;DHT22;479;53.514;9.994;2023-11-19T14:00:42;12.60;99.90
981;DHT22;479;53.514;9.994;2023-11-19T14:03:09;12.50;99.90
981;DHT22;479;53.514;9.994;2023-11-19T14:05:37;12.50;99.90
981;DHT22;479;53.514;9.994;2023-11-19T14:08:04;12.50;99.90
981;DHT22;479;53.514;9.994;2023-11-19T14:10:37;12.40;99.90
981;DHT22;479;53.514;9.994;2023-11-19T14:13:07;12.40;99.90
981;DHT22;479;53.514;9.994;2023-11-19T14:15:34;12.30;99.90
981;DHT22;479;53.514;9.994;2023-11-19T14:18:02;12.30;99.90
981;DHT22;479;53.514;9.994;2023-11-19T14:20:29;12.30;99.90
981;DHT22;479;53.514;9.994;2023-11-19T14:22:56;12.30;99.90
981;DHT22;479;53.514;9.994;2023-11-19T14:25:23;12.20;99.90
981;DHT22;479;53.514;9.994;2023-11-19T14:27:50;12.10;99.90
981;DHT22;479;53.514;9.994;2023-11-19T14:30:19;12.00;99.90
981;DHT22;479;53.514;9.994;2023-11-19T14:32:45;12.00;99.90
981;DHT22;479;53.514;9.994;2023-11-19T14:35:14;11.90;99.90
981;DHT22;479;53.514;9.994;2023-11-19T14:37:41;11.90;99.90
981;DHT22;479;53.514;9.994;2023-11-19T14:40:08;11.90;99.90
981;DHT22;479;53.514;9.994;2023-11-19T14:42:37;11.90;99.90
981;DHT22;479;53.514;9.994;2023-11-19T14:45:06;11.90;99.90
981;DHT22;479;53.514;9.994;2023-11-19T14:47:34;11.90;99.90
981;DHT22;479;53.514;9.994;2023-11-19T14:50:01;11.90;99.90
981;DHT22;479;53.514;9.994;2023-11-19T14:52:28;11.90;99.90
981;DHT22;479;53.514;9.994;2023-11-19T14:54:55;11.90;99.90
981;DHT22;479;53.514;9.994;2023-11-19T14:57:22;11.80;99.90
981;DHT22;479;53.514;9.994;2023-11-19T14:59:49;11.80;99.90
981;DHT22;479;53.514;9.994;2023-11-19T15:02:16;11.80;99.90
981;DHT22;479;53.514;9.994;2023-11-19T15:04:44;11.70;99.90
981;DHT22;479;53.514;9.994;2023-11-19T15:07:11;11.70;99.90
981;DHT22;479;53.514;9.994;2023-11-19T15:09:38;11.70;99.90
981;DHT22;479;53.514;9.994;2023-11-19T15:12:05;11.60;99.90
981;DHT22;479;53.514;9.994;2023-11-19T15:14:32;11.60;99.90
981;DHT22;479;53.514;9.994;2023-11-19T15:16:59;11.60;99.90
981;DHT22;479;53.514;9.994;2023-11-19T15:19:27;11.60;99.90
981;DHT22;479;53.514;9.994;2023-11-19T15:21:55;11.60;99.90
981;DHT22;479;53.514;9.994;2023-11-19T15:24:23;11.60;99.90
981;DHT22;479;53.514;9.994;2023-11-19T15:26:50;11.60;99.90
981;DHT22;479;53.514;9.994;2023-11-19T15:29:17;11.60;99.90
981;DHT22;479;53.514;9.994;2023-11-19T15:31:44;11.60;99.90
981;DHT22;479;53.514;9.994;2023-11-19T15:34:11;11.60;99.90
981;DHT22;479;53.514;9.994;2023-11-19T15:36:38;11.50;99.90
981;DHT22;479;53.514;9.994;2023-11-19T15:39:06;11.50;99.90
981;DHT22;479;53.514;9.994;2023-11-19T15:41:33;11.50;99.90
981;DHT22;479;53.514;9.994;2023-11-19T15:44:01;11.60;99.90
981;DHT22;479;53.514;9.994;2023-11-19T15:46:29;11.50;99.90
981;DHT22;479;53.514;9.994;2023-11-19T15:48:56;11.50;99.90
981;DHT22;479;53.514;9.994;2023-11-19T15:51:23;11.50;99.90
981;DHT22;479;53.514;9.994;2023-11-19T15:53:50;11.50;99.90
981;DHT22;479;53.514;9.994;2023-11-19T15:56:18;11.50;99.90
981;DHT22;479;53.514;9.994;2023-11-19T15:58:45;11.50;99.90
981;DHT22;479;53.514;9.994;2023-11-19T16:01:11;11.40;99.90
981;DHT22;479;53.514;9.994;2023-11-19T16:03:38;11.40;99.90
981;DHT22;479;53.514;9.994;2023-11-19T16:06:08;11.50;99.90
981;DHT22;479;53.514;9.994;2023-11-19T16:08:36;11.40;99.90
981;DHT22;479;53.514;9.994;2023-11-19T16:11:03;11.40;99.90
981;DHT22;479;53.514;9.994;2023-11-19T16:13:31;11.40;99.90
981;DHT22;479;53.514;9.994;2023-11-19T16:15:59;11.30;99.90
981;DHT22;479;53.514;9.994;2023-11-19T16:18:26;11.30;99.90
981;DHT22;479;53.514;9.994;2023-11-19T16:20:54;11.30;99.90
981;DHT22;479;53.514;9.994;2023-11-19T16:23:21;11.30;99.90
981;DHT22;479;53.514;9.994;2023-11-19T16:25:48;11.30;99.90
981;DHT22;479;53.514;9.994;2023-11-19T16:28:15;11.30;99.90
981;DHT22;479;53.514;9.994;2023-11-19T16:30:45;11.30;99.90
981;DHT22;479;53.514;9.994;2023-11-19T16:33:12;11.30;99.90
981;DHT22;479;53.514;9.994;2023-11-19T16:35:39;11.30;99.90
981;DHT22;479;53.514;9.994;2023-11-19T16:38:06;11.40;99.90
981;DHT22;479;53.514;9.994;2023-11-19T16:40:33;11.30;99.90
981;DHT22;479;53.514;9.994;2023-11-19T16:43:04;11.30;99.90
981;DHT22;479;53.514;9.994;2023-11-19T16:45:31;11.20;99.90
981;DHT22;479;53.514;9.994;2023-11-19T16:48:00;11.20;99.90
981;DHT22;479;53.514;9.994;2023-11-19T16:50:29;11.10;99.90
981;DHT22;479;53.514;9.994;2023-11-19T16:52:56;11.10;99.90
981;DHT22;479;53.514;9.994;2023-11-19T16:55:22;11.10;99.90